Time;durP1;ratioP1;P1;durP2;ratioP2;P2;SDS_P1;SDS_P2;PMS_P1;PMS_P2;Temp;Humidity;BMP_temperature;BMP_pressure;BME280_temperature;BME280_humidity;BME280_pressure;Samples;Min_cycle;Max_cycle;Signal;HPM_P1;HPM_P2
2023/12/30 00:00:49;;;;;;;14.50;4.10;;;10.20;99.90;;;;;;5063973;28;20171;-85
2023/12/30 00:03:14;;;;;;;11.93;4.07;;;10.20;99.90;;;;;;5062720;28;20173;-85
2023/12/30 00:05:40;;;;;;;13.53;3.50;;;10.20;99.90;;;;;;5058885;28;20185;-84
2023/12/30 00:08:06;;;;;;;12.40;3.53;;;10.10;99.90;;;;;;5054036;28;20185;-84
2023/12/30 00:10:31;;;;;;;19.27;3.67;;;10.10;99.90;;;;;;5053164;28;20291;-85
2023/12/30 00:12:57;;;;;;;12.03;3.30;;;10.10;99.90;;;;;;5054383;28;20181;-83
2023/12/30 00:15:23;;;;;;;11.83;2.90;;;10.00;99.90;;;;;;5052916;28;20674;-84
2023/12/30 00:17:48;;;;;;;11.90;2.97;;;10.00;99.90;;;;;;5053988;28;20661;-85
2023/12/30 00:20:14;;;;;;;11.80;3.07;;;10.00;99.90;;;;;;5053986;28;20272;-84
2023/12/30 00:22:40;;;;;;;12.97;3.80;;;10.00;99.90;;;;;;5053215;28;20179;-85
2023/12/30 00:25:07;;;;;;;14.97;3.13;;;10.00;99.90;;;;;;5053609;28;20193;-83
2023/12/30 00:27:33;;;;;;;9.73;3.40;;;9.90;99.90;;;;;;5054293;28;20169;-84
2023/12/30 00:29:58;;;;;;;12.80;3.53;;;9.90;99.90;;;;;;5053681;28;20180;-87
2023/12/30 00:32:24;;;;;;;13.60;3.27;;;9.90;99.90;;;;;;5054170;28;20551;-84
2023/12/30 00:34:49;;;;;;;10.83;2.67;;;9.80;99.90;;;;;;5054103;28;20181;-83
2023/12/30 00:37:19;;;;;;;10.40;3.10;;;9.70;99.90;;;;;;5053700;28;20588;-84
2023/12/30 00:39:46;;;;;;;10.70;3.00;;;9.70;99.90;;;;;;5053989;28;20239;-83
2023/12/30 00:42:12;;;;;;;11.13;2.87;;;9.60;99.90;;;;;;5053868;28;20200;-84
2023/12/30 00:44:37;;;;;;;12.87;3.77;;;9.80;99.90;;;;;;5053790;28;20620;-85
2023/12/30 00:47:03;;;;;;;15.77;3.20;;;9.70;99.90;;;;;;5053500;28;20189;-84
2023/12/30 00:49:29;;;;;;;12.03;2.77;;;9.70;99.90;;;;;;5053229;28;20181;-83
2023/12/30 00:51:54;;;;;;;10.70;3.13;;;9.70;99.90;;;;;;5055142;28;20234;-83
2023/12/30 00:54:20;;;;;;;10.40;2.67;;;9.60;99.90;;;;;;5053426;28;20211;-83
2023/12/30 00:56:46;;;;;;;13.80;3.53;;;9.70;99.90;;;;;;5054140;28;20553;-93
2023/12/30 00:59:12;;;;;;;12.47;3.40;;;9.70;99.90;;;;;;5053458;28;20643;-84
2023/12/30 01:01:38;;;;;;;10.13;2.87;;;9.70;99.90;;;;;;5052993;28;20254;-84
2023/12/30 01:04:04;;;;;;;11.67;3.17;;;9.60;99.90;;;;;;5052789;28;20601;-84
2023/12/30 01:06:30;;;;;;;13.90;3.27;;;9.60;99.90;;;;;;5052653;28;20173;-85
2023/12/30 01:08:56;;;;;;;14.10;2.83;;;9.80;99.90;;;;;;5052013;28;20259;-84
2023/12/30 01:11:21;;;;;;;15.93;3.60;;;9.80;99.90;;;;;;5053317;28;20173;-85
2023/12/30 01:13:47;;;;;;;13.37;3.60;;;9.80;99.90;;;;;;5052314;28;20176;-85
2023/12/30 01:16:13;;;;;;;15.37;3.40;;;9.90;99.90;;;;;;5052690;28;20203;-85
2023/12/30 01:18:40;;;;;;;16.37;3.43;;;9.90;99.90;;;;;;5053427;28;20195;-84
2023/12/30 01:21:06;;;;;;;15.87;3.77;;;9.80;99.90;;;;;;5053389;28;20173;-84
2023/12/30 01:23:31;;;;;;;12.57;3.07;;;9.80;99.90;;;;;;5053716;28;20185;-84
2023/12/30 01:25:57;;;;;;;15.83;3.60;;;9.90;99.90;;;;;;5052740;28;20287;-84
2023/12/30 01:28:23;;;;;;;12.87;3.03;;;9.90;99.90;;;;;;5052821;28;20181;-85
2023/12/30 01:30:48;;;;;;;15.70;4.17;;;9.90;99.90;;;;;;5052187;28;20260;-84
2023/12/30 01:33:14;;;;;;;12.97;3.43;;;9.90;99.90;;;;;;5052824;28;20169;-84
2023/12/30 01:35:40;;;;;;;12.87;3.60;;;9.80;99.90;;;;;;5053033;28;20196;-85
2023/12/30 01:38:06;;;;;;;14.20;4.10;;;9.80;99.90;;;;;;5053095;28;20645;-84
2023/12/30 01:40:31;;;;;;;15.30;3.60;;;9.90;99.90;;;;;;5051984;28;20211;-85
2023/12/30 01:42:57;;;;;;;11.70;3.73;;;9.90;99.90;;;;;;5053125;28;20633;-85
2023/12/30 01:45:23;;;;;;;17.07;3.60;;;9.90;99.90;;;;;;5052643;28;20177;-84
2023/12/30 01:47:50;;;;;;;11.77;3.50;;;9.80;99.90;;;;;;5073103;28;20176;-84
2023/12/30 01:50:16;;;;;;;16.33;5.00;;;9.80;99.90;;;;;;5072330;28;20229;-84
2023/12/30 01:52:44;;;;;;;16.90;3.77;;;9.90;99.90;;;;;;5074043;28;20251;-85
2023/12/30 01:55:10;;;;;;;16.00;4.17;;;9.90;99.90;;;;;;5072272;28;20207;-90
2023/12/30 01:57:36;;;;;;;20.53;4.03;;;9.90;99.90;;;;;;5073866;28;20636;-85
2023/12/30 02:00:03;;;;;;;14.83;3.77;;;9.90;99.90;;;;;;5072554;28;20509;-88
2023/12/30 02:02:28;;;;;;;17.20;4.03;;;9.80;99.90;;;;;;5072854;28;20172;-85
2023/12/30 02:04:55;;;;;;;14.60;4.20;;;9.70;99.90;;;;;;5070864;28;20658;-84
2023/12/30 02:07:21;;;;;;;15.90;4.40;;;9.70;99.90;;;;;;5073027;28;20172;-83
2023/12/30 02:09:47;;;;;;;17.27;3.37;;;9.70;99.90;;;;;;5072451;28;20183;-82
2023/12/30 02:12:13;;;;;;;15.87;3.83;;;9.70;99.90;;;;;;5072007;28;20168;-83
2023/12/30 02:14:39;;;;;;;16.77;3.40;;;9.70;99.90;;;;;;5071939;28;20234;-83
2023/12/30 02:17:04;;;;;;;19.83;4.30;;;9.70;99.90;;;;;;5071867;28;20698;-84
2023/12/30 02:19:30;;;;;;;15.73;4.40;;;9.70;99.90;;;;;;5072382;28;20184;-84
2023/12/30 02:21:55;;;;;;;15.20;3.90;;;9.80;99.90;;;;;;5072067;28;20188;-84
2023/12/30 02:24:21;;;;;;;12.60;3.43;;;9.90;99.90;;;;;;5072171;28;20793;-83
2023/12/30 02:26:47;;;;;;;13.37;3.87;;;9.70;99.90;;;;;;5072205;28;20579;-85
2023/12/30 02:29:13;;;;;;;11.27;3.57;;;9.70;99.90;;;;;;5071776;28;20172;-88
2023/12/30 02:31:45;;;;;;;16.67;4.03;;;9.70;99.90;;;;;;5072111;28;20229;-84
2023/12/30 02:34:18;;;;;;;19.17;3.90;;;9.80;99.90;;;;;;5071491;28;20693;-85
2023/12/30 02:36:47;;;;;;;11.07;3.07;;;9.80;99.90;;;;;;5070375;28;20213;-85
2023/12/30 02:39:13;;;;;;;14.07;3.40;;;9.80;99.90;;;;;;5072485;28;20230;-85
2023/12/30 02:41:39;;;;;;;18.20;4.30;;;9.80;99.90;;;;;;5072057;28;20248;-85
2023/12/30 02:44:06;;;;;;;17.30;3.87;;;9.70;99.90;;;;;;5071930;28;20531;-84
2023/12/30 02:46:31;;;;;;;15.03;4.07;;;9.70;99.90;;;;;;5071905;28;20174;-85
2023/12/30 02:48:57;;;;;;;15.17;3.03;;;9.60;99.90;;;;;;5072085;28;20172;-83
2023/12/30 02:51:23;;;;;;;15.73;3.77;;;9.60;99.90;;;;;;5072011;28;20535;-84
2023/12/30 02:53:49;;;;;;;13.77;4.00;;;9.60;99.90;;;;;;5072054;28;20168;-85
2023/12/30 02:56:26;;;;;;;16.53;3.83;;;9.70;99.90;;;;;;5071895;28;20223;-84
2023/12/30 02:59:00;;;;;;;13.27;3.37;;;9.60;99.90;;;;;;5072808;28;20160;-83
2023/12/30 03:01:27;;;;;;;17.17;3.70;;;9.70;99.90;;;;;;5072371;28;20180;-84
2023/12/30 03:03:55;;;;;;;11.50;3.87;;;9.60;99.90;;;;;;5082341;28;20195;-84
2023/12/30 03:06:21;;;;;;;15.03;3.63;;;9.60;99.90;;;;;;5079098;28;20176;-83
2023/12/30 03:08:48;;;;;;;12.20;3.87;;;9.70;99.90;;;;;;5072983;28;20164;-83
2023/12/30 03:11:13;;;;;;;12.33;3.30;;;9.70;99.90;;;;;;5074321;28;20255;-83
2023/12/30 03:13:39;;;;;;;14.53;3.20;;;9.80;99.90;;;;;;5073340;28;20164;-93
2023/12/30 03:16:05;;;;;;;14.57;3.03;;;9.80;99.90;;;;;;5072359;28;20207;-85
2023/12/30 03:18:31;;;;;;;14.10;3.43;;;9.80;99.90;;;;;;5074966;28;20172;-84
2023/12/30 03:20:57;;;;;;;16.00;3.53;;;9.80;99.90;;;;;;5075796;28;20221;-90
2023/12/30 03:23:23;;;;;;;12.60;3.57;;;9.90;99.90;;;;;;5075157;28;20182;-87
2023/12/30 03:25:51;;;;;;;11.60;3.13;;;9.80;99.90;;;;;;5075298;28;20215;-83
2023/12/30 03:28:17;;;;;;;14.90;3.93;;;9.80;99.90;;;;;;5075536;28;20237;-84
2023/12/30 03:30:45;;;;;;;15.30;3.23;;;9.80;99.90;;;;;;5075249;28;20172;-84
2023/12/30 03:33:11;;;;;;;13.37;3.97;;;9.80;99.90;;;;;;5075018;28;20236;-83
2023/12/30 03:35:40;;;;;;;11.60;2.83;;;9.80;99.90;;;;;;5075238;28;20196;-84
2023/12/30 03:38:05;;;;;;;11.67;3.23;;;9.80;99.90;;;;;;5075353;28;20173;-83
2023/12/30 03:40:31;;;;;;;11.73;2.80;;;9.80;99.90;;;;;;5074939;28;20169;-84
2023/12/30 03:42:57;;;;;;;12.43;3.53;;;9.80;99.90;;;;;;5074515;28;20817;-84
2023/12/30 03:45:22;;;;;;;22.63;4.10;;;9.70;99.90;;;;;;5074867;28;20657;-83
2023/12/30 03:47:48;;;;;;;15.20;3.67;;;9.70;99.90;;;;;;5074993;28;20221;-84
2023/12/30 03:50:13;;;;;;;14.10;3.33;;;9.70;99.90;;;;;;5074194;28;20704;-83
2023/12/30 03:52:39;;;;;;;14.10;3.37;;;9.80;99.90;;;;;;5074539;28;20175;-84
2023/12/30 03:55:05;;;;;;;15.87;3.20;;;9.80;99.90;;;;;;5073716;28;20172;-84
2023/12/30 03:57:31;;;;;;;15.30;3.60;;;9.70;99.90;;;;;;5074891;28;20216;-84
2023/12/30 03:59:56;;;;;;;14.17;3.60;;;9.70;99.90;;;;;;5075010;28;20693;-83
2023/12/30 04:02:22;;;;;;;13.20;3.20;;;9.70;99.90;;;;;;5074534;28;20620;-84
2023/12/30 04:04:48;;;;;;;15.23;4.07;;;9.60;99.90;;;;;;5075105;28;20172;-84
2023/12/30 04:07:14;;;;;;;12.77;3.67;;;9.60;99.90;;;;;;5074218;28;20624;-83
2023/12/30 04:09:40;;;;;;;14.77;3.40;;;9.60;99.90;;;;;;5074518;28;20180;-85
2023/12/30 04:12:06;;;;;;;11.40;3.17;;;9.60;99.90;;;;;;5074459;28;20176;-95
2023/12/30 04:14:31;;;;;;;14.70;3.43;;;9.70;99.90;;;;;;5074824;28;20172;-84
2023/12/30 04:16:57;;;;;;;14.37;3.73;;;9.80;99.90;;;;;;5073162;28;20280;-84
2023/12/30 04:19:24;;;;;;;15.47;3.77;;;9.70;99.90;;;;;;5072952;28;20636;-84
2023/12/30 04:21:50;;;;;;;13.63;3.03;;;9.70;99.90;;;;;;5074973;28;20165;-84
2023/12/30 04:24:17;;;;;;;12.23;2.93;;;9.60;99.90;;;;;;5073506;28;20664;-83
2023/12/30 04:26:43;;;;;;;10.57;3.23;;;9.60;99.90;;;;;;5073450;28;20176;-83
2023/12/30 04:29:12;;;;;;;14.83;4.00;;;9.70;99.90;;;;;;5074286;28;20187;-84
2023/12/30 04:31:38;;;;;;;13.10;3.43;;;9.70;99.90;;;;;;5074024;28;20169;-84
2023/12/30 04:34:04;;;;;;;16.67;3.73;;;9.70;99.90;;;;;;5074424;28;20172;-84
2023/12/30 04:36:30;;;;;;;12.97;3.60;;;9.70;99.90;;;;;;5072353;28;20706;-83
2023/12/30 04:38:56;;;;;;;13.30;3.40;;;9.70;99.90;;;;;;5073380;28;20172;-83
2023/12/30 04:41:21;;;;;;;15.13;3.43;;;9.60;99.90;;;;;;5074328;28;20179;-84
2023/12/30 04:43:47;;;;;;;15.70;3.90;;;9.60;99.90;;;;;;5074352;28;20564;-84
2023/12/30 04:46:13;;;;;;;12.17;3.27;;;9.50;99.90;;;;;;5073720;28;20182;-83
2023/12/30 04:48:39;;;;;;;16.47;4.17;;;9.50;99.90;;;;;;5073409;28;20527;-83
2023/12/30 04:51:05;;;;;;;12.97;3.43;;;9.40;99.90;;;;;;5074034;28;20176;-84
2023/12/30 04:53:32;;;;;;;13.30;3.17;;;9.50;99.90;;;;;;5073534;28;20245;-83
2023/12/30 04:55:58;;;;;;;20.80;3.90;;;9.50;99.90;;;;;;5073190;28;20224;-85
2023/12/30 04:58:24;;;;;;;13.67;3.30;;;9.40;99.90;;;;;;5073624;28;20270;-84
2023/12/30 05:00:50;;;;;;;13.57;3.40;;;9.40;99.90;;;;;;5073543;28;20169;-84
2023/12/30 05:03:17;;;;;;;11.67;3.20;;;9.30;99.90;;;;;;5073637;28;20658;-85
2023/12/30 05:05:42;;;;;;;15.87;3.87;;;9.30;99.90;;;;;;5073204;28;20176;-84
2023/12/30 05:08:08;;;;;;;10.83;3.50;;;9.30;99.90;;;;;;5073596;28;20199;-84
2023/12/30 05:10:34;;;;;;;14.63;3.93;;;9.20;99.90;;;;;;5072144;28;20176;-83
2023/12/30 05:13:00;;;;;;;17.70;3.73;;;9.30;99.90;;;;;;5073426;28;20172;-83
2023/12/30 05:15:26;;;;;;;11.87;3.13;;;9.40;99.90;;;;;;5073372;28;20184;-83
2023/12/30 05:17:53;;;;;;;13.70;4.20;;;9.40;99.90;;;;;;5073268;28;20180;-84
2023/12/30 05:20:19;;;;;;;15.17;3.67;;;9.40;99.90;;;;;;5073257;28;20173;-84
2023/12/30 05:22:45;;;;;;;14.97;3.70;;;9.40;99.90;;;;;;5072325;28;20190;-83
2023/12/30 05:25:11;;;;;;;15.60;3.53;;;9.20;99.90;;;;;;5072690;28;20204;-83
2023/12/30 05:27:37;;;;;;;13.90;3.40;;;9.30;99.90;;;;;;5073284;28;20267;-83
2023/12/30 05:30:07;;;;;;;17.17;4.60;;;9.20;99.90;;;;;;5072477;28;20247;-83
2023/12/30 05:32:33;;;;;;;10.97;3.63;;;9.10;99.90;;;;;;5074022;28;20276;-83
2023/12/30 05:34:59;;;;;;;14.33;3.60;;;9.10;99.90;;;;;;5072870;28;20600;-84
2023/12/30 05:37:25;;;;;;;13.67;3.60;;;9.20;99.90;;;;;;5072183;28;20219;-83
2023/12/30 05:39:51;;;;;;;14.90;3.63;;;9.30;99.90;;;;;;5072215;28;20266;-84
2023/12/30 05:42:16;;;;;;;14.37;3.73;;;9.30;99.90;;;;;;5072835;28;20642;-85
2023/12/30 05:44:42;;;;;;;13.00;3.43;;;9.20;99.90;;;;;;5073152;28;20171;-83
2023/12/30 05:47:08;;;;;;;15.30;3.93;;;9.20;99.90;;;;;;5072963;28;20221;-84
2023/12/30 05:49:36;;;;;;;16.73;3.90;;;9.10;99.90;;;;;;5072952;28;20179;-88
2023/12/30 05:52:02;;;;;;;12.40;3.73;;;9.10;99.90;;;;;;5072692;28;20266;-82
2023/12/30 05:54:28;;;;;;;16.07;4.10;;;9.10;99.90;;;;;;5072499;28;20258;-84
2023/12/30 05:56:54;;;;;;;18.83;4.27;;;9.10;99.90;;;;;;5071935;28;20531;-84
2023/12/30 05:59:20;;;;;;;12.93;3.67;;;9.10;99.90;;;;;;5072014;28;20183;-83
2023/12/30 06:01:46;;;;;;;14.87;4.17;;;9.10;99.90;;;;;;5071776;28;20179;-83
2023/12/30 06:04:15;;;;;;;12.63;4.00;;;9.10;99.90;;;;;;5072153;28;20172;-84
2023/12/30 06:06:42;;;;;;;15.97;3.93;;;9.10;99.90;;;;;;5071632;28;20687;-83
2023/12/30 06:09:08;;;;;;;14.73;3.73;;;9.10;99.90;;;;;;5072669;28;20734;-84
2023/12/30 06:11:34;;;;;;;15.83;4.27;;;9.20;99.90;;;;;;5072040;28;20192;-84
2023/12/30 06:14:00;;;;;;;20.23;4.03;;;9.20;99.90;;;;;;5071538;28;20172;-84
2023/12/30 06:16:25;;;;;;;14.17;3.83;;;9.10;99.90;;;;;;5071585;28;20208;-83
2023/12/30 06:18:51;;;;;;;14.10;4.63;;;9.20;99.90;;;;;;5072282;28;20176;-84
2023/12/30 06:21:17;;;;;;;18.80;4.63;;;9.30;99.90;;;;;;5071946;28;20180;-84
2023/12/30 06:23:43;;;;;;;14.83;4.47;;;9.10;99.90;;;;;;5071492;28;20284;-84
2023/12/30 06:26:09;;;;;;;16.70;4.00;;;9.20;99.90;;;;;;5072230;28;20187;-84
2023/12/30 06:28:34;;;;;;;16.57;5.10;;;9.20;99.90;;;;;;5071469;28;20180;-84
2023/12/30 06:31:00;;;;;;;12.90;3.93;;;9.10;99.90;;;;;;5072100;28;20176;-83
2023/12/30 06:33:26;;;;;;;10.67;4.03;;;9.00;99.90;;;;;;5072078;28;20252;-83
2023/12/30 06:35:52;;;;;;;17.60;4.40;;;9.10;99.90;;;;;;5071819;28;20199;-84
2023/12/30 06:38:18;;;;;;;21.20;4.27;;;9.00;99.90;;;;;;5072048;28;20754;-85
2023/12/30 06:40:47;;;;;;;14.73;4.30;;;9.00;99.90;;;;;;5071921;28;20252;-84
2023/12/30 06:43:13;;;;;;;16.93;4.43;;;9.10;99.90;;;;;;5071670;28;20176;-84
2023/12/30 06:45:39;;;;;;;14.07;3.90;;;9.00;99.90;;;;;;5072120;28;20176;-83
2023/12/30 06:48:05;;;;;;;17.83;4.40;;;9.00;99.90;;;;;;5071889;28;20202;-82
2023/12/30 06:50:31;;;;;;;15.80;4.37;;;9.00;99.90;;;;;;5071355;28;20176;-83
2023/12/30 06:53:00;;;;;;;15.50;4.63;;;9.00;99.90;;;;;;5071841;28;20172;-83
2023/12/30 06:55:26;;;;;;;14.53;4.17;;;9.00;99.90;;;;;;5071568;28;20275;-84
2023/12/30 06:57:52;;;;;;;16.13;5.30;;;8.90;99.90;;;;;;5071485;28;20271;-83
2023/12/30 07:00:19;;;;;;;20.80;5.10;;;8.90;99.90;;;;;;5071910;28;20184;-84
2023/12/30 07:02:45;;;;;;;12.77;4.27;;;8.90;99.90;;;;;;5071749;28;20233;-85
2023/12/30 07:05:11;;;;;;;16.07;5.50;;;8.90;99.90;;;;;;5071349;28;20181;-84
2023/12/30 07:07:37;;;;;;;14.03;5.00;;;8.90;99.90;;;;;;5071561;28;20183;-83
2023/12/30 07:10:07;;;;;;;15.60;4.47;;;9.00;99.90;;;;;;5071789;28;20180;-84
2023/12/30 07:12:32;;;;;;;17.30;5.10;;;9.00;99.90;;;;;;5072012;28;20259;-83
2023/12/30 07:14:58;;;;;;;15.77;4.80;;;8.90;99.90;;;;;;5071713;28;20321;-84
2023/12/30 07:17:26;;;;;;;12.13;4.53;;;8.90;99.90;;;;;;5071310;28;20668;-83
2023/12/30 07:19:52;;;;;;;18.30;4.90;;;9.00;99.90;;;;;;5071639;28;20179;-83
2023/12/30 07:22:19;;;;;;;15.73;5.30;;;9.00;99.90;;;;;;5071352;28;20180;-83
2023/12/30 07:24:46;;;;;;;21.00;5.93;;;9.00;99.90;;;;;;5071660;28;20349;-84
2023/12/30 07:27:14;;;;;;;17.03;5.20;;;9.00;99.90;;;;;;5071710;28;20620;-84
2023/12/30 07:29:40;;;;;;;20.53;5.53;;;9.00;99.90;;;;;;5071127;28;20641;-83
2023/12/30 07:32:06;;;;;;;13.43;4.60;;;9.00;99.90;;;;;;5071657;28;20199;-83
2023/12/30 07:34:32;;;;;;;16.87;5.70;;;9.00;99.90;;;;;;5070743;28;20169;-83
2023/12/30 07:37:01;;;;;;;17.67;6.23;;;9.10;99.90;;;;;;5071505;28;20665;-84
2023/12/30 07:39:27;;;;;;;22.50;5.67;;;9.10;99.90;;;;;;5071865;28;20184;-84
2023/12/30 07:41:53;;;;;;;16.23;6.37;;;9.10;99.90;;;;;;5071211;28;20176;-84
2023/12/30 07:44:19;;;;;;;16.13;5.23;;;9.20;99.90;;;;;;5070584;28;20172;-84
2023/12/30 07:46:44;;;;;;;14.67;5.87;;;9.10;99.90;;;;;;5070900;28;20219;-85
2023/12/30 07:49:10;;;;;;;14.87;5.33;;;9.10;99.90;;;;;;5071275;28;20263;-83
2023/12/30 07:51:36;;;;;;;18.00;5.33;;;9.00;99.90;;;;;;5071332;28;20651;-84
2023/12/30 07:54:02;;;;;;;15.50;4.87;;;9.00;99.90;;;;;;5070091;28;20164;-84
2023/12/30 07:56:27;;;;;;;20.00;5.20;;;9.00;99.90;;;;;;5070349;28;20220;-84
2023/12/30 07:58:53;;;;;;;18.60;5.53;;;9.00;99.90;;;;;;5070615;28;20203;-84
2023/12/30 08:01:19;;;;;;;16.70;4.97;;;8.90;99.90;;;;;;5070918;28;20574;-83
2023/12/30 08:03:44;;;;;;;18.73;4.60;;;9.00;99.90;;;;;;5071571;28;20168;-83
2023/12/30 08:06:10;;;;;;;17.30;6.00;;;9.00;99.90;;;;;;5074439;28;20628;-84
2023/12/30 08:08:35;;;;;;;17.80;5.60;;;9.00;99.90;;;;;;5074229;28;20180;-83
2023/12/30 08:11:01;;;;;;;12.80;4.70;;;9.00;99.90;;;;;;5073261;28;20540;-85
2023/12/30 08:13:27;;;;;;;17.47;5.10;;;9.00;99.90;;;;;;5074540;28;20543;-84
2023/12/30 08:15:53;;;;;;;19.67;5.90;;;9.00;99.90;;;;;;5072922;28;20200;-84
2023/12/30 08:18:18;;;;;;;19.07;5.57;;;9.00;99.90;;;;;;5072994;28;20207;-85
2023/12/30 08:20:44;;;;;;;20.17;5.77;;;9.10;99.90;;;;;;5072156;28;20762;-85
2023/12/30 08:23:10;;;;;;;17.37;5.60;;;9.00;99.90;;;;;;5073123;28;20172;-88
2023/12/30 08:25:36;;;;;;;15.73;5.13;;;9.20;99.90;;;;;;5073326;28;20193;-85
2023/12/30 08:28:01;;;;;;;14.23;5.13;;;9.10;99.90;;;;;;5075284;28;20160;-85
2023/12/30 08:30:27;;;;;;;19.67;5.57;;;9.00;99.90;;;;;;5074392;28;20168;-86
2023/12/30 08:32:53;;;;;;;15.60;5.20;;;9.10;99.90;;;;;;5073013;28;20186;-85
2023/12/30 08:35:19;;;;;;;16.87;5.20;;;9.00;99.90;;;;;;5074778;28;20172;-86
2023/12/30 08:37:44;;;;;;;16.23;5.40;;;9.10;99.90;;;;;;5077742;28;20204;-85
2023/12/30 08:40:11;;;;;;;16.03;5.47;;;9.10;99.90;;;;;;5078187;28;20164;-84
2023/12/30 08:42:37;;;;;;;15.17;5.07;;;9.20;99.90;;;;;;5074042;28;20172;-85
2023/12/30 08:45:07;;;;;;;18.30;6.13;;;9.20;99.90;;;;;;5073598;28;20251;-88
2023/12/30 08:47:34;;;;;;;15.67;5.03;;;9.20;99.90;;;;;;5074127;28;20174;-88
2023/12/30 08:50:00;;;;;;;17.33;4.70;;;9.20;99.90;;;;;;5073815;28;20313;-86
2023/12/30 08:52:26;;;;;;;19.57;5.60;;;9.20;99.90;;;;;;5074838;28;20196;-86
2023/12/30 08:54:52;;;;;;;19.03;5.73;;;9.30;99.90;;;;;;5073028;28;20267;-86
2023/12/30 08:57:17;;;;;;;15.37;5.40;;;9.20;99.90;;;;;;5073985;28;20223;-86
2023/12/30 08:59:43;;;;;;;12.17;4.60;;;9.30;99.90;;;;;;5074417;28;20177;-86
2023/12/30 09:02:10;;;;;;;19.17;5.57;;;9.40;99.90;;;;;;5074528;28;20180;-88
2023/12/30 09:04:35;;;;;;;17.40;5.27;;;9.50;99.90;;;;;;5073432;28;20168;-86
2023/12/30 09:07:01;;;;;;;16.20;4.87;;;9.50;99.90;;;;;;5072925;28;20616;-86
2023/12/30 09:09:27;;;;;;;14.30;5.70;;;9.40;99.90;;;;;;5074582;28;20222;-88
2023/12/30 09:11:52;;;;;;;14.13;4.70;;;9.40;99.90;;;;;;5073425;28;20628;-86
2023/12/30 09:14:19;;;;;;;15.57;4.70;;;9.30;99.90;;;;;;5073654;28;20225;-88
2023/12/30 09:16:45;;;;;;;15.63;4.90;;;9.30;99.90;;;;;;5065649;28;20262;-87
2023/12/30 09:19:10;;;;;;;19.13;4.67;;;9.30;99.90;;;;;;5073088;28;20203;-86
2023/12/30 09:21:36;;;;;;;16.87;4.83;;;9.40;99.90;;;;;;5073401;28;20643;-85
2023/12/30 09:24:02;;;;;;;18.20;5.40;;;9.30;99.90;;;;;;5073670;28;20224;-86
2023/12/30 09:26:28;;;;;;;16.07;5.00;;;9.40;99.90;;;;;;5073627;28;20176;-86
2023/12/30 09:28:54;;;;;;;13.43;4.90;;;9.40;99.90;;;;;;5072306;28;20183;-85
2023/12/30 09:31:27;;;;;;;16.03;5.43;;;9.50;99.90;;;;;;5072461;28;20191;-86
2023/12/30 09:33:52;;;;;;;21.20;5.67;;;9.60;99.90;;;;;;5074124;28;20175;-86
2023/12/30 09:36:18;;;;;;;16.33;5.70;;;9.60;99.90;;;;;;5072704;28;20212;-84
2023/12/30 09:38:44;;;;;;;15.33;4.63;;;9.60;99.90;;;;;;5072715;28;20291;-86
2023/12/30 09:41:11;;;;;;;15.97;5.53;;;9.60;99.90;;;;;;5073500;28;20176;-88
2023/12/30 09:43:37;;;;;;;14.10;4.50;;;9.60;99.90;;;;;;5072674;28;20176;-85
2023/12/30 09:46:03;;;;;;;13.00;4.60;;;9.60;99.90;;;;;;5080243;28;20176;-87
2023/12/30 09:48:30;;;;;;;16.87;5.60;;;9.50;99.90;;;;;;5071934;28;20234;-84
2023/12/30 09:50:59;;;;;;;16.70;5.30;;;9.60;99.90;;;;;;5071621;28;20172;-85
2023/12/30 09:53:25;;;;;;;16.97;4.83;;;9.50;99.90;;;;;;5073133;28;20715;-88
2023/12/30 09:55:52;;;;;;;14.43;5.60;;;9.50;99.90;;;;;;5072683;28;20247;-87
2023/12/30 09:58:19;;;;;;;17.77;6.17;;;9.50;99.90;;;;;;5072439;28;20184;-86
2023/12/30 10:00:44;;;;;;;14.33;5.57;;;9.50;99.90;;;;;;5072531;28;20514;-86
2023/12/30 10:03:11;;;;;;;13.77;5.77;;;9.50;99.90;;;;;;5071772;28;20179;-87
2023/12/30 10:05:37;;;;;;;19.37;6.20;;;9.50;99.90;;;;;;5072230;28;20176;-84
2023/12/30 10:08:04;;;;;;;15.67;5.70;;;9.40;99.90;;;;;;5072646;28;20187;-87
2023/12/30 10:10:43;;;;;;;15.20;6.17;;;9.40;99.90;;;;;;5072696;28;20175;-87
2023/12/30 10:13:10;;;;;;;19.20;6.57;;;9.40;99.90;;;;;;5071769;28;20195;-85
2023/12/30 10:15:37;;;;;;;15.93;6.63;;;9.40;99.90;;;;;;5072230;28;20235;-86
2023/12/30 10:18:04;;;;;;;19.30;7.83;;;9.50;99.90;;;;;;5073230;28;20254;-86
2023/12/30 10:20:30;;;;;;;13.23;6.27;;;9.50;99.90;;;;;;5072141;28;20176;-86
2023/12/30 10:22:56;;;;;;;15.93;7.23;;;9.50;99.90;;;;;;5072262;28;20613;-86
2023/12/30 10:25:21;;;;;;;17.50;6.67;;;9.60;99.90;;;;;;5071443;28;20208;-86
2023/12/30 10:27:48;;;;;;;16.67;6.67;;;9.60;99.90;;;;;;5071916;28;20726;-86
2023/12/30 10:30:19;;;;;;;15.97;6.50;;;9.80;99.90;;;;;;5072390;28;20206;-88
2023/12/30 10:32:46;;;;;;;22.60;6.57;;;9.80;99.90;;;;;;5071736;28;20640;-86
2023/12/30 10:35:13;;;;;;;18.43;6.80;;;9.80;99.90;;;;;;5072278;28;20218;-88
2023/12/30 10:37:42;;;;;;;18.33;5.73;;;9.90;99.90;;;;;;5072071;28;20215;-87
2023/12/30 10:40:09;;;;;;;17.50;6.47;;;9.90;99.90;;;;;;5072000;28;20172;-87
2023/12/30 10:42:40;;;;;;;15.07;5.43;;;10.00;99.90;;;;;;5072048;28;20182;-87
2023/12/30 10:45:06;;;;;;;14.47;5.73;;;10.10;99.90;;;;;;5073836;28;20241;-85
2023/12/30 10:47:37;;;;;;;15.63;5.93;;;10.20;99.90;;;;;;5071286;28;20176;-87
2023/12/30 10:50:06;;;;;;;18.03;5.80;;;10.20;99.90;;;;;;5071693;28;20195;-86
2023/12/30 10:52:41;;;;;;;18.10;5.70;;;10.20;99.90;;;;;;5071318;28;20237;-87
2023/12/30 10:55:09;;;;;;;18.87;5.00;;;10.20;99.90;;;;;;5071556;28;20225;-87
2023/12/30 10:57:39;;;;;;;21.00;5.87;;;10.20;99.90;;;;;;5071266;28;20246;-86
2023/12/30 11:00:09;;;;;;;18.70;5.10;;;10.30;99.90;;;;;;5071636;28;20267;-87
2023/12/30 11:02:36;;;;;;;15.47;5.37;;;10.30;99.90;;;;;;5071522;28;20259;-87
2023/12/30 11:05:07;;;;;;;15.50;4.73;;;10.40;99.90;;;;;;5072567;28;20172;-87
2023/12/30 11:07:34;;;;;;;16.60;5.13;;;10.40;99.90;;;;;;5072211;28;20231;-86
2023/12/30 11:09:59;;;;;;;15.20;5.00;;;10.50;99.90;;;;;;5072441;28;20181;-87
2023/12/30 11:12:27;;;;;;;17.73;5.00;;;10.50;99.90;;;;;;5071809;28;20535;-86
2023/12/30 11:14:53;;;;;;;19.23;5.30;;;10.50;99.90;;;;;;5071937;28;20225;-87
2023/12/30 11:17:35;;;;;;;11.93;3.77;;;10.50;99.90;;;;;;5072010;28;20302;-87
2023/12/30 11:20:27;;;;;;;18.93;4.97;;;10.50;99.90;;;;;;5072074;28;20165;-88
2023/12/30 11:22:54;;;;;;;14.60;4.30;;;10.70;99.90;;;;;;5071730;28;20240;-86
2023/12/30 11:25:20;;;;;;;15.73;4.80;;;10.70;99.90;;;;;;5071033;28;20292;-86
2023/12/30 11:27:53;;;;;;;14.60;4.20;;;10.70;99.90;;;;;;5071633;28;20207;-89
2023/12/30 11:30:25;;;;;;;14.00;4.00;;;10.70;99.90;;;;;;5072179;28;20242;-90
2023/12/30 11:32:54;;;;;;;16.80;5.33;;;10.70;99.90;;;;;;5071914;28;20219;-89
2023/12/30 11:35:20;;;;;;;13.93;4.37;;;10.70;99.90;;;;;;5070552;28;20200;-89
2023/12/30 11:37:51;;;;;;;14.53;4.27;;;10.80;99.90;;;;;;5071687;28;20574;-89
2023/12/30 11:40:19;;;;;;;11.33;4.20;;;10.80;99.90;;;;;;5075423;28;20176;-88
2023/12/30 11:42:45;;;;;;;15.37;4.47;;;10.80;99.90;;;;;;5074907;28;20173;-88
2023/12/30 11:45:11;;;;;;;10.73;3.40;;;10.90;99.90;;;;;;5075719;28;20179;-90
2023/12/30 11:47:37;;;;;;;11.03;3.80;;;11.00;99.90;;;;;;5076541;28;20553;-89
2023/12/30 11:50:07;;;;;;;12.70;3.77;;;11.00;99.90;;;;;;5075763;28;20180;-90
2023/12/30 11:52:36;;;;;;;11.70;3.80;;;11.00;99.90;;;;;;5076281;28;20266;-88
2023/12/30 11:55:02;;;;;;;10.60;3.50;;;11.00;99.10;;;;;;5075121;28;20200;-85
2023/12/30 11:57:28;;;;;;;15.03;3.83;;;11.00;99.90;;;;;;5075437;28;20277;-89
2023/12/30 11:59:54;;;;;;;13.57;4.03;;;11.00;99.90;;;;;;5075916;28;20175;-88
2023/12/30 12:02:21;;;;;;;13.47;4.67;;;11.10;99.90;;;;;;5075931;28;20216;-89
2023/12/30 12:04:47;;;;;;;11.80;3.83;;;11.10;99.80;;;;;;5073888;28;20169;-89
2023/12/30 12:07:12;;;;;;;10.50;4.23;;;11.10;99.20;;;;;;5076629;28;20544;-88
2023/12/30 12:09:40;;;;;;;14.50;4.50;;;11.20;98.60;;;;;;5077370;28;20635;-89
2023/12/30 12:12:06;;;;;;;11.50;4.30;;;11.20;98.20;;;;;;5076499;28;20548;-86
2023/12/30 12:14:32;;;;;;;12.90;4.60;;;11.30;98.50;;;;;;5073383;28;20203;-87
2023/12/30 12:17:04;;;;;;;9.40;3.90;;;11.40;96.10;;;;;;5074763;28;20247;-87
2023/12/30 12:19:30;;;;;;;14.63;4.33;;;11.30;95.30;;;;;;5073602;28;20255;-88
2023/12/30 12:22:00;;;;;;;13.97;4.10;;;11.20;95.50;;;;;;5055835;28;20267;-90
2023/12/30 12:24:26;;;;;;;14.63;4.60;;;11.10;97.00;;;;;;5055371;28;20199;-89
2023/12/30 12:26:53;;;;;;;12.80;4.43;;;11.10;97.10;;;;;;5055050;28;20192;-87
2023/12/30 12:29:19;;;;;;;11.47;4.03;;;11.20;97.60;;;;;;5054761;28;20538;-89
2023/12/30 12:31:46;;;;;;;9.87;3.47;;;11.20;96.90;;;;;;5055112;28;20176;-89
2023/12/30 12:34:25;;;;;;;10.70;4.33;;;11.20;96.00;;;;;;5057430;28;20177;-90
2023/12/30 12:36:51;;;;;;;12.27;4.17;;;11.30;95.50;;;;;;5055216;28;20218;-90
2023/12/30 12:39:17;;;;;;;10.40;3.50;;;11.20;93.10;;;;;;5055195;28;20511;-91
2023/12/30 12:41:45;;;;;;;8.50;4.00;;;11.20;92.00;;;;;;5054981;28;20214;-90